Latest Weather Observations for Thredbo Top Station

IDN60801

Issued at 4:32 pm EST Wednesday 26 July 2017 (issued every 30 minutes, with the page automatically refreshed every 10 minutes)

About weather observations | Map of weather stations | Latest weather observations for NSW | Other Formats
Station Details ID: 071032 Name: THREDBO AWS Lat: -36.49 Lon: 148.29 Height: 1957.0 m
Data from the previous 72 hours. | See also: Recent months at Thredbo Top Station
Date/Time
EST
Temp
°C
App
Temp
°C
Dew
Point
°C
Rel
Hum
%
Delta-T
°C
Wind Press
QNH
hPa
Press
MSL
hPa
Rain since
9am
mm
Dir  Spd
km/h
Gust
km/h
Spd
kts
Gust
kts
26/04:30pm -1.8 - - - - WNW 39 52 21 28 1016.8 1020.4 0.6
26/04:00pm -1.7 - - - - WNW 35 50 19 27 1015.7 1019.2 0.6
26/03:31pm -1.7 - - - - WNW 32 50 17 27 1015.6 1019.1 0.6
26/03:30pm -1.7 - - - - WNW 33 50 18 27 1015.7 1019.2 0.6
26/03:00pm -1.9 - - - - WNW 43 61 23 33 1015.0 1018.4 0.4
26/02:31pm -2.0 - - - - NW 52 70 28 38 1014.4 1017.8 0.4
26/02:30pm -2.0 - - - - NW 54 70 29 38 1014.4 1017.8 0.4
26/02:00pm -2.0 - - - - NW 43 70 23 38 - - 0.4
26/01:30pm -1.9 - - - - NW 41 59 22 32 - - 0.2
26/01:19pm -2.0 - - - - WNW 46 65 25 35 - - 0.2
26/01:17pm -2.2 - - - - WNW 50 67 27 36 - - 0.2
26/01:05pm -2.0 - - - - NW 48 67 26 36 - - 0.2
26/01:00pm -2.1 - - - - NW 44 61 24 33 - - 0.0
26/12:30pm -2.1 - - - - NW 44 67 24 36 1014.3 1017.7 0.0
26/12:00pm -2.1 - - - - NW 46 72 25 39 - - 0.0
26/11:30am -2.3 - - - - NW 52 72 28 39 - - 0.0
26/11:00am -2.3 - - - - NW 57 78 31 42 - - 0.0
26/10:30am -2.2 - - - - NW 56 76 30 41 - - 0.0
26/10:00am -2.4 - - - - NW 52 70 28 38 - - 0.0
26/09:31am -2.1 - - - - NW 46 67 25 36 - - 0.0
26/09:30am -2.1 - - - - NW 44 61 24 33 - - 0.0
26/09:00am -2.1 - - - - NW 41 59 22 32 - - 6.8
26/08:30am -2.5 - - - - NW 41 69 22 37 - - 6.8
26/08:00am -2.5 - - - - WNW 41 63 22 34 - - 6.8
26/07:30am -2.4 - - - - WNW 39 70 21 38 - - 6.8
26/07:18am -2.2 - - - - NW 44 78 24 42 - - 6.8
26/07:00am -1.8 - - - - WNW 35 56 19 30 - - 6.8
26/06:30am -1.7 - - - - WNW 35 57 19 31 - - 6.4
26/06:03am -1.8 - - - - WNW 35 54 19 29 - - 6.4
26/06:00am -1.8 - - - - WNW 37 54 20 29 - - 6.4
26/05:30am -1.6 - - - - NW 44 69 24 37 - - 6.4
26/05:00am -1.4 - - - - NW 41 59 22 32 - - 6.4
26/04:30am -1.1 - - - - NW 39 65 21 35 - - 6.4
26/04:01am -0.9 - - - - NW 41 59 22 32 - - 6.4
26/04:00am -0.8 - - - - NW 43 59 23 32 - - 6.4
26/03:30am -0.6 - - - - NW 39 59 21 32 - - 6.4
26/03:00am -0.7 - - - - NW 44 69 24 37 - - 6.4
26/02:30am -0.1 - - - - WNW 43 72 23 39 - - 6.4
26/02:00am -0.1 - - - - WNW 43 65 23 35 - - 6.4
26/01:30am 0.0 - - - - WNW 54 89 29 48 - - 6.4
26/01:00am 0.0 - - - - WNW 56 82 30 44 - - 6.4
26/12:30am 0.2 - - - - WNW 48 74 26 40 - - 6.4
26/12:00am 0.1 - - - - WNW 52 85 28 46 - - 6.4
 
Date/Time
EST
Temp
°C
App
Temp
°C
Dew
Point
°C
Rel
Hum
%
Delta-T
°C
Wind Press
QNH
hPa
Press
MSL
hPa
Rain since
9am
mm
Dir  Spd
km/h
Gust
km/h
Spd
kts
Gust
kts
25/11:30pm 0.0 - - - - WNW 56 85 30 46 - - 5.6
25/11:00pm 0.0 - - - - WNW 54 83 29 45 - - 5.6
25/10:30pm 0.0 - - - - NW 56 83 30 45 - - 4.4
25/10:00pm 0.0 - - - - NW 61 96 33 52 - - 3.2
25/09:30pm 0.0 - - - - NW 57 85 31 46 - - 1.8
25/09:00pm 0.0 - - - - NW 56 93 30 50 - - 1.2
25/08:32pm 0.3 - - - - NNW 63 83 34 45 - - 0.2
25/08:30pm 0.3 - - - - NNW 63 83 34 45 - - 0.2
25/08:02pm 0.5 - - - - NNW 78 98 42 53 - - 0.0
25/08:00pm 0.5 - - - - NNW 78 95 42 51 - - 0.0
25/07:32pm 0.6 - - - - NNW 76 95 41 51 - - 0.0
25/07:30pm 0.6 - - - - NNW 76 91 41 49 - - 0.0
25/07:00pm 0.5 - - - - NNW 78 107 42 58 - - 0.0
25/06:47pm 0.5 - - - - NNW 76 111 41 60 - - 0.0
25/06:30pm 0.4 - - - - NNW 74 93 40 50 - - 0.0
25/06:00pm 0.2 - - - - NNW 63 91 34 49 1014.5 1017.9 0.0
25/05:30pm 0.0 - - - - NNW 69 87 37 47 - - 0.0
25/05:00pm -0.1 - - - - NNW 63 85 34 46 1014.4 1017.8 0.0
25/04:31pm -0.3 - - - - NNW 63 82 34 44 1014.5 1017.9 0.0
25/04:30pm -0.3 - - - - NNW 63 80 34 43 1014.5 1017.9 0.0
25/04:00pm -0.1 - - - - NNW 63 82 34 44 1014.7 1018.1 0.0
25/03:30pm 0.0 - - - - NNW 61 85 33 46 1015.3 1018.7 0.0
25/03:02pm 0.0 - - - - NNW 57 76 31 41 1015.1 1018.6 0.0
25/03:00pm 0.0 - - - - NNW 57 74 31 40 1015.5 1019.0 0.0
25/02:50pm -0.1 - - - - NNW 56 74 30 40 1015.3 1018.7 0.0
25/02:30pm -0.2 - - - - NNW 54 67 29 36 1015.5 1019.0 0.0
25/02:00pm -0.3 - - - - NNW 56 78 30 42 1015.4 1018.8 0.0
25/01:53pm -0.5 - - - - NNW 54 74 29 40 1015.6 1019.1 0.0
25/01:30pm -0.7 - - - - NNW 52 67 28 36 1016.0 1019.5 0.0
25/01:00pm -0.5 - - - - NW 46 61 25 33 1016.7 1020.2 0.0
25/12:30pm -0.8 - - - - NW 46 59 25 32 1017.2 1020.7 0.0
25/12:07pm -0.8 - - - - NW 50 69 27 37 1017.7 1021.2 0.0
25/12:00pm -0.8 - - - - NW 52 69 28 37 1017.8 1021.4 0.0
25/11:37am -0.8 - - - - NW 59 78 32 42 1018.0 1021.6 0.0
25/11:30am -0.8 - - - - NW 61 78 33 42 1017.7 1021.2 0.0
25/11:13am -0.9 - - - - NW 61 80 33 43 1017.6 1021.1 0.0
25/11:00am -0.8 - - - - WNW 63 78 34 42 1017.7 1021.2 0.0
25/10:30am -1.0 - - - - NW 63 76 34 41 1018.7 1022.3 0.0
25/10:00am -1.0 - - - - NW 54 74 29 40 1018.5 1022.1 0.0
25/09:30am -1.2 - - - - WNW 56 74 30 40 1018.9 1022.5 0.0
25/09:00am -1.4 - - - - WNW 59 78 32 42 1018.8 1022.4 0.2
25/08:30am -1.8 - - - - WNW 57 76 31 41 1018.7 1022.3 0.2
25/08:01am -2.0 - - - - WNW 61 82 33 44 1017.4 1021.0 0.2
25/08:00am -1.8 - - - - WNW 61 78 33 42 1017.8 1021.4 0.2
25/07:49am -1.6 - - - - NW 59 78 32 42 1017.4 1021.0 0.0
25/07:30am -1.5 - - - - NW 61 76 33 41 1017.1 1020.6 0.0
25/07:14am -1.5 - - - - NW 57 78 31 42 1017.1 1020.6 0.0
25/07:00am -1.5 - - - - NW 59 72 32 39 1017.1 1020.6 0.0
25/06:48am -1.5 - - - - NW 54 78 29 42 1016.7 1020.2 0.0
25/06:30am -1.7 - - - - NW 56 69 30 37 1016.7 1020.2 0.0
25/06:24am -1.6 - - - - NW 56 74 30 40 1016.7 1020.2 0.0
25/06:00am -1.7 - - - - NW 56 69 30 37 1016.7 1020.2 0.0
25/05:30am -2.1 - - - - NW 56 65 30 35 1016.7 1020.2 0.0
25/05:00am -2.2 - - - - NW 54 69 29 37 1016.5 1020.0 0.0
25/04:30am -2.6 - - - - WNW 56 76 30 41 1017.0 1020.5 0.0
25/04:00am -2.6 - - - - WNW 50 72 27 39 1017.1 1020.6 0.0
25/03:30am -2.6 - - - - WNW 52 72 28 39 1017.1 1020.6 0.0
25/03:21am -2.7 - - - - WNW 54 72 29 39 1016.6 1020.1 0.0
25/03:00am -2.9 - - - - WNW 52 63 28 34 1016.7 1020.2 0.0
25/02:30am -2.4 - - - - NW 54 67 29 36 1016.8 1020.4 0.0
25/02:14am -2.1 - - - - NW 54 72 29 39 1016.7 1020.2 0.0
25/02:00am -2.2 - - - - NW 52 65 28 35 1017.0 1020.5 0.0
25/01:30am -2.5 - - - - WNW 48 65 26 35 1017.4 1021.0 0.0
25/01:10am -2.5 - - - - NW 50 69 27 37 1017.2 1020.7 0.0
25/01:00am -2.2 - - - - WNW 48 63 26 34 1017.2 1020.7 0.0
25/12:30am -2.7 - - - - WNW 54 70 29 38 1017.4 1021.0 0.0
25/12:14am -2.6 - - - - WNW 46 67 25 36 1017.6 1021.1 0.0
25/12:00am -2.4 - - - - WNW 48 63 26 34 1018.0 1021.6 0.0
 
Date/Time
EST
Temp
°C
App
Temp
°C
Dew
Point
°C
Rel
Hum
%
Delta-T
°C
Wind Press
QNH
hPa
Press
MSL
hPa
Rain since
9am
mm
Dir  Spd
km/h
Gust
km/h
Spd
kts
Gust
kts
24/11:34pm -2.2 - - - - NW 57 80 31 43 1017.3 1020.9 0.0
24/11:30pm -2.2 - - - - NW 56 67 30 36 1017.3 1020.9 0.0
24/11:00pm -2.8 - - - - WNW 59 76 32 41 1017.2 1020.7 0.0
24/10:30pm -2.8 - - - - WNW 57 80 31 43 1017.6 1021.1 0.0
24/10:07pm -2.8 - - - - WNW 50 69 27 37 1017.7 1021.2 0.0
24/10:00pm -2.9 - - - - WNW 52 69 28 37 1017.7 1021.2 0.0
24/09:30pm -3.0 - - - - WNW 54 76 29 41 1017.2 1020.7 0.0
24/09:07pm -3.1 - - - - NW 57 76 31 41 1017.3 1020.9 0.0
24/09:00pm -3.0 - - - - NW 57 72 31 39 1017.2 1020.7 0.0
24/08:30pm -2.9 - - - - NW 56 69 30 37 1017.0 1020.5 0.0
24/08:13pm -2.9 - - - - NW 57 76 31 41 1016.8 1020.4 0.0
24/08:00pm -2.8 - - - - NW 56 72 30 39 1016.7 1020.2 0.0
24/07:41pm -2.7 - - - - NW 54 72 29 39 1017.0 1020.5 0.0
24/07:30pm -2.6 - - - - NW 52 69 28 37 1017.1 1020.6 0.0
24/07:05pm -2.7 - - - - NW 56 76 30 41 1016.2 1019.7 0.0
24/07:00pm -2.6 - - - - NW 56 72 30 39 1016.8 1020.4 0.0
24/06:54pm -2.7 - - - - NW 54 72 29 39 1016.7 1020.2 0.0
24/06:30pm -2.7 - - - - NW 56 70 30 38 1016.6 1020.1 0.0
24/06:00pm -2.6 - - - - NW 54 67 29 36 1017.1 1020.6 0.0
24/05:30pm -2.5 - - - - NW 52 63 28 34 1016.7 1020.2 0.0
24/05:12pm -2.2 - - - - NW 50 72 27 39 1016.7 1020.2 0.0
24/05:00pm -2.3 - - - - NW 50 67 27 36 1016.8 1020.4 0.0
24/04:30pm -2.3 - - - - NW 54 67 29 36 1016.8 1020.4 0.0
24/04:00pm -2.2 - - - - NW 50 69 27 37 1016.6 1020.1 0.0
24/03:38pm -2.3 - - - - NW 54 74 29 40 1016.5 1020.0 0.0
24/03:30pm -2.3 - - - - NW 50 65 27 35 1016.5 1020.0 0.0
24/03:04pm -2.2 - - - - NW 48 67 26 36 1016.4 1019.8 0.0
24/03:00pm -2.3 - - - - NW 50 65 27 35 1016.7 1020.2 0.0
24/02:31pm -2.3 - - - - NW 50 72 27 39 1015.9 1019.3 0.0
24/02:30pm -2.2 - - - - NW 50 65 27 35 1016.0 1019.5 0.0
24/02:18pm -2.3 - - - - NW 50 72 27 39 1016.1 1019.6 0.0
24/02:00pm -2.2 - - - - NW 50 65 27 35 1016.1 1019.6 0.0
24/01:30pm -2.2 - - - - NW 50 63 27 34 1016.1 1019.6 0.0
24/01:20pm -2.2 - - - - NW 46 65 25 35 1016.4 1019.8 0.0
24/01:00pm -2.2 - - - - NW 52 67 28 36 1015.9 1019.3 0.0
24/12:43pm -2.2 - - - - NW 52 70 28 38 1016.5 1020.0 0.0
24/12:30pm -2.2 - - - - NW 52 65 28 35 1016.2 1019.7 0.0
24/12:04pm -2.2 - - - - NW 50 69 27 37 1016.6 1020.1 0.0
24/12:00pm -2.1 - - - - NW 50 65 27 35 1016.6 1020.1 0.0
24/11:33am -2.5 - - - - WNW 48 67 26 36 1017.0 1020.5 0.0
24/11:30am -2.5 - - - - WNW 50 65 27 35 1017.4 1021.0 0.0
24/11:00am -2.8 - - - - NW 50 61 27 33 1017.6 1021.1 0.0
24/10:44am -2.9 - - - - NW 48 67 26 36 1017.0 1020.5 0.0
24/10:30am -2.8 - - - - WNW 54 69 29 37 1017.2 1020.7 0.0
24/10:00am -2.6 - - - - WNW 44 59 24 32 1016.8 1020.4 0.0
24/09:30am -2.8 - - - - NW 48 63 26 34 1016.5 1020.0 0.0
24/09:00am -2.7 - - - - NW 50 65 27 35 1016.5 1020.0 3.4
24/08:30am -2.6 - - - - WNW 52 63 28 34 1015.9 1019.3 3.4
24/08:00am -2.9 - - - - NW 56 67 30 36 1015.0 1018.4 3.4
24/07:30am -3.1 - - - - NW 54 69 29 37 1014.8 1018.2 3.4
24/07:00am -2.8 - - - - NW 54 69 29 37 1014.9 1018.3 3.4
24/06:30am -2.6 - - - - NW 44 56 24 30 1014.8 1018.2 3.4
24/06:01am -2.9 - - - - NW 48 76 26 41 1014.5 1017.9 3.4
24/06:00am -2.8 - - - - NW 46 63 25 34 1014.5 1017.9 3.4
24/05:30am -2.5 - - - - NW 43 57 23 31 1014.3 1017.7 3.4
24/05:00am -2.5 - - - - NW 44 56 24 30 - - 3.4
24/04:30am -2.0 - - - - NW 46 59 25 32 - - 3.4
24/04:00am -2.2 - - - - NW 44 57 24 31 - - 3.4
24/03:30am -2.0 - - - - NW 41 56 22 30 - - 3.4
24/03:03am -2.1 - - - - NW 39 59 21 32 - - 3.4
24/03:00am -2.0 - - - - WNW 39 56 21 30 1014.3 1017.7 3.4
24/02:30am -2.2 - - - - NW 46 65 25 35 - - 3.4
24/02:20am -2.4 - - - - NW 46 72 25 39 - - 3.4
24/02:00am -2.2 - - - - NW 44 59 24 32 - - 3.4
24/01:49am -2.1 - - - - NW 43 67 23 36 - - 3.4
24/01:30am -1.7 - - - - NW 43 57 23 31 - - 3.4
24/01:00am -1.6 - - - - NW 43 56 23 30 - - 3.4
24/12:30am -1.4 - - - - NW 39 52 21 28 - - 3.4
24/12:00am -1.1 - - - - NW 39 48 21 26 - - 3.4
 
Date/Time
EST
Temp
°C
App
Temp
°C
Dew
Point
°C
Rel
Hum
%
Delta-T
°C
Wind Press
QNH
hPa
Press
MSL
hPa
Rain since
9am
mm
Dir  Spd
km/h
Gust
km/h
Spd
kts
Gust
kts
23/11:30pm -1.1 - - - - NW 37 56 20 30 - - 3.2
23/11:00pm -1.4 - - - - NW 35 50 19 27 - - 3.0
23/10:38pm -1.0 - - - - NW 39 63 21 34 - - 3.0
23/10:30pm -0.9 - - - - NW 35 50 19 27 - - 3.0
23/10:00pm -0.9 - - - - NW 37 56 20 30 - - 2.6
23/09:59pm -0.9 - - - - NW 37 56 20 30 - - 2.6
23/09:30pm -0.9 - - - - NW 44 61 24 33 - - 2.4
23/09:00pm -1.4 - - - - NNW 41 54 22 29 - - 2.0
23/08:30pm -1.4 - - - - NW 39 52 21 28 - - 1.4
23/08:14pm -1.3 - - - - NW 43 61 23 33 - - 1.0
23/08:00pm -1.2 - - - - NNW 46 59 25 32 - - 0.8
23/07:39pm -1.4 - - - - NW 44 65 24 35 - - 0.6
23/07:30pm -1.4 - - - - NW 41 56 22 30 - - 0.4
23/07:06pm -1.5 - - - - NW 41 59 22 32 - - 0.0
23/07:00pm -1.5 - - - - NW 44 59 24 32 - - 0.0
23/06:33pm -1.6 - - - - NW 39 59 21 32 - - 0.0
23/06:30pm -1.6 - - - - NW 39 56 21 30 - - 0.0
23/06:00pm -1.9 - - - - NW 37 56 20 30 - - 0.0
23/05:30pm -2.1 - - - - NW 43 63 23 34 - - 0.0
23/05:00pm -2.0 - - - - NW 41 59 22 32 - - 0.0

Other Formats:

Comma delimited format used in spreadsheet applications
http://www.bom.gov.au/fwo/IDN60801/IDN60801.95909.axf

JavaScript Object Notation format (JSON) in row-major order
http://www.bom.gov.au/fwo/IDN60801/IDN60801.95909.json